sensor_id;sensor_type;location;lat;lon;timestamp;temperature;humidity
60848;DHT22;46681;47.696;9.140;2023-05-15T00:00:57;14.80;74.10
60848;DHT22;46681;47.696;9.140;2023-05-15T00:03:30;14.70;74.20
60848;DHT22;46681;47.696;9.140;2023-05-15T00:05:57;14.70;74.00
60848;DHT22;46681;47.696;9.140;2023-05-15T00:08:24;14.70;74.00
60848;DHT22;46681;47.696;9.140;2023-05-15T00:10:50;14.70;74.30
60848;DHT22;46681;47.696;9.140;2023-05-15T00:13:17;14.70;74.00
60848;DHT22;46681;47.696;9.140;2023-05-15T00:15:44;14.70;74.10
60848;DHT22;46681;47.696;9.140;2023-05-15T00:18:11;14.60;73.90
60848;DHT22;46681;47.696;9.140;2023-05-15T00:20:38;14.60;73.90
60848;DHT22;46681;47.696;9.140;2023-05-15T00:23:05;14.60;74.50
60848;DHT22;46681;47.696;9.140;2023-05-15T00:25:31;14.60;73.80
60848;DHT22;46681;47.696;9.140;2023-05-15T00:27:58;14.60;74.20
60848;DHT22;46681;47.696;9.140;2023-05-15T00:30:24;14.60;73.90
60848;DHT22;46681;47.696;9.140;2023-05-15T00:32:51;14.60;73.90
60848;DHT22;46681;47.696;9.140;2023-05-15T00:35:18;14.50;73.80
60848;DHT22;46681;47.696;9.140;2023-05-15T00:37:45;14.50;73.80
60848;DHT22;46681;47.696;9.140;2023-05-15T00:40:17;14.50;73.80
60848;DHT22;46681;47.696;9.140;2023-05-15T00:42:49;14.50;73.70
60848;DHT22;46681;47.696;9.140;2023-05-15T00:45:19;14.40;73.90
60848;DHT22;46681;47.696;9.140;2023-05-15T00:47:49;14.50;74.00
60848;DHT22;46681;47.696;9.140;2023-05-15T00:50:20;14.40;74.10
60848;DHT22;46681;47.696;9.140;2023-05-15T00:52:49;14.40;73.90
60848;DHT22;46681;47.696;9.140;2023-05-15T00:55:16;14.40;74.10
60848;DHT22;46681;47.696;9.140;2023-05-15T00:57:47;14.40;74.30
60848;DHT22;46681;47.696;9.140;2023-05-15T01:00:13;14.40;74.20
60848;DHT22;46681;47.696;9.140;2023-05-15T01:02:40;14.40;74.40
60848;DHT22;46681;47.696;9.140;2023-05-15T01:05:09;14.40;74.20
60848;DHT22;46681;47.696;9.140;2023-05-15T01:07:46;14.40;74.50
60848;DHT22;46681;47.696;9.140;2023-05-15T01:10:14;14.30;74.00
60848;DHT22;46681;47.696;9.140;2023-05-15T01:12:43;14.30;74.20
60848;DHT22;46681;47.696;9.140;2023-05-15T01:15:11;14.30;74.10
60848;DHT22;46681;47.696;9.140;2023-05-15T01:17:38;14.30;74.40
60848;DHT22;46681;47.696;9.140;2023-05-15T01:20:07;14.30;74.30
60848;DHT22;46681;47.696;9.140;2023-05-15T01:23:05;14.30;74.30
60848;DHT22;46681;47.696;9.140;2023-05-15T01:25:59;14.30;74.10
60848;DHT22;46681;47.696;9.140;2023-05-15T01:28:39;14.20;74.30
60848;DHT22;46681;47.696;9.140;2023-05-15T01:31:15;14.20;74.30
60848;DHT22;46681;47.696;9.140;2023-05-15T01:33:49;14.20;74.30
60848;DHT22;46681;47.696;9.140;2023-05-15T01:36:25;14.20;74.40
60848;DHT22;46681;47.696;9.140;2023-05-15T01:39:00;14.20;74.40
60848;DHT22;46681;47.696;9.140;2023-05-15T01:41:44;14.20;74.60
60848;DHT22;46681;47.696;9.140;2023-05-15T01:44:35;14.20;74.90
60848;DHT22;46681;47.696;9.140;2023-05-15T01:47:07;14.20;74.60
60848;DHT22;46681;47.696;9.140;2023-05-15T01:49:42;14.20;74.70
60848;DHT22;46681;47.696;9.140;2023-05-15T01:52:35;14.20;74.80
60848;DHT22;46681;47.696;9.140;2023-05-15T01:55:08;14.10;74.70
60848;DHT22;46681;47.696;9.140;2023-05-15T01:57:37;14.20;74.80
60848;DHT22;46681;47.696;9.140;2023-05-15T02:00:09;14.10;74.60
60848;DHT22;46681;47.696;9.140;2023-05-15T02:02:40;14.10;74.70
60848;DHT22;46681;47.696;9.140;2023-05-15T02:08:00;14.10;74.80
60848;DHT22;46681;47.696;9.140;2023-05-15T02:10:28;14.10;74.80
60848;DHT22;46681;47.696;9.140;2023-05-15T02:12:54;14.10;74.90
60848;DHT22;46681;47.696;9.140;2023-05-15T02:15:22;14.00;74.70
60848;DHT22;46681;47.696;9.140;2023-05-15T02:17:52;14.10;74.90
60848;DHT22;46681;47.696;9.140;2023-05-15T02:20:18;14.00;74.90
60848;DHT22;46681;47.696;9.140;2023-05-15T02:22:50;14.00;74.80
60848;DHT22;46681;47.696;9.140;2023-05-15T02:25:25;14.00;75.00
60848;DHT22;46681;47.696;9.140;2023-05-15T02:28:21;14.00;75.00
60848;DHT22;46681;47.696;9.140;2023-05-15T02:30:56;13.90;74.80
60848;DHT22;46681;47.696;9.140;2023-05-15T02:36:22;13.90;75.20
60848;DHT22;46681;47.696;9.140;2023-05-15T02:38:52;13.90;75.10
60848;DHT22;46681;47.696;9.140;2023-05-15T02:41:22;13.90;74.90
60848;DHT22;46681;47.696;9.140;2023-05-15T02:43:53;13.90;75.10
60848;DHT22;46681;47.696;9.140;2023-05-15T02:46:23;13.90;75.00
60848;DHT22;46681;47.696;9.140;2023-05-15T02:48:55;13.90;75.10
60848;DHT22;46681;47.696;9.140;2023-05-15T02:51:20;13.90;75.70
60848;DHT22;46681;47.696;9.140;2023-05-15T02:53:52;13.90;75.60
60848;DHT22;46681;47.696;9.140;2023-05-15T02:56:19;13.80;74.90
60848;DHT22;46681;47.696;9.140;2023-05-15T02:58:53;13.80;75.20
60848;DHT22;46681;47.696;9.140;2023-05-15T03:01:21;13.80;75.10
60848;DHT22;46681;47.696;9.140;2023-05-15T03:03:50;13.80;75.20
60848;DHT22;46681;47.696;9.140;2023-05-15T03:06:15;13.70;75.20
60848;DHT22;46681;47.696;9.140;2023-05-15T03:08:45;13.70;75.10
60848;DHT22;46681;47.696;9.140;2023-05-15T03:11:14;13.70;75.20
60848;DHT22;46681;47.696;9.140;2023-05-15T03:13:45;13.70;75.20
60848;DHT22;46681;47.696;9.140;2023-05-15T03:16:13;13.70;75.30
60848;DHT22;46681;47.696;9.140;2023-05-15T03:18:38;13.70;75.00
60848;DHT22;46681;47.696;9.140;2023-05-15T03:21:04;13.60;75.20
60848;DHT22;46681;47.696;9.140;2023-05-15T03:23:33;13.60;75.30
60848;DHT22;46681;47.696;9.140;2023-05-15T03:26:00;13.60;75.10
60848;DHT22;46681;47.696;9.140;2023-05-15T03:28:46;13.60;75.20
60848;DHT22;46681;47.696;9.140;2023-05-15T03:31:21;13.60;75.30
60848;DHT22;46681;47.696;9.140;2023-05-15T03:33:53;13.60;75.40
60848;DHT22;46681;47.696;9.140;2023-05-15T03:36:19;13.60;75.20
60848;DHT22;46681;47.696;9.140;2023-05-15T03:38:47;13.60;75.20
60848;DHT22;46681;47.696;9.140;2023-05-15T03:41:20;13.60;75.30
60848;DHT22;46681;47.696;9.140;2023-05-15T03:43:54;13.60;75.30
60848;DHT22;46681;47.696;9.140;2023-05-15T03:46:27;13.60;75.30
60848;DHT22;46681;47.696;9.140;2023-05-15T03:48:53;13.60;75.40
60848;DHT22;46681;47.696;9.140;2023-05-15T03:51:18;13.60;75.60
60848;DHT22;46681;47.696;9.140;2023-05-15T03:53:46;13.60;75.30
60848;DHT22;46681;47.696;9.140;2023-05-15T03:56:20;13.60;75.30
60848;DHT22;46681;47.696;9.140;2023-05-15T03:58:45;13.50;75.20
60848;DHT22;46681;47.696;9.140;2023-05-15T04:01:22;13.60;75.20
60848;DHT22;46681;47.696;9.140;2023-05-15T04:03:48;13.60;75.40
60848;DHT22;46681;47.696;9.140;2023-05-15T04:06:25;13.60;75.70
60848;DHT22;46681;47.696;9.140;2023-05-15T04:08:55;13.60;75.60
60848;DHT22;46681;47.696;9.140;2023-05-15T04:11:23;13.60;75.40
60848;DHT22;46681;47.696;9.140;2023-05-15T04:14:01;13.60;75.60
60848;DHT22;46681;47.696;9.140;2023-05-15T04:16:30;13.60;75.30
60848;DHT22;46681;47.696;9.140;2023-05-15T04:19:12;13.60;75.40
60848;DHT22;46681;47.696;9.140;2023-05-15T04:21:45;13.60;75.30
60848;DHT22;46681;47.696;9.140;2023-05-15T04:24:15;13.60;75.30
60848;DHT22;46681;47.696;9.140;2023-05-15T04:26:57;13.60;75.30
60848;DHT22;46681;47.696;9.140;2023-05-15T04:32:23;13.60;75.30
60848;DHT22;46681;47.696;9.140;2023-05-15T04:34:52;13.60;75.10
60848;DHT22;46681;47.696;9.140;2023-05-15T04:37:23;13.60;74.80
60848;DHT22;46681;47.696;9.140;2023-05-15T04:39:57;13.60;74.90
60848;DHT22;46681;47.696;9.140;2023-05-15T04:42:26;13.60;75.10
60848;DHT22;46681;47.696;9.140;2023-05-15T04:44:54;13.70;74.90
60848;DHT22;46681;47.696;9.140;2023-05-15T04:47:27;13.70;74.60
60848;DHT22;46681;47.696;9.140;2023-05-15T04:49:58;13.70;75.40
60848;DHT22;46681;47.696;9.140;2023-05-15T04:52:34;13.70;76.20
60848;DHT22;46681;47.696;9.140;2023-05-15T04:55:19;13.80;76.40
60848;DHT22;46681;47.696;9.140;2023-05-15T04:58:17;13.80;75.70
60848;DHT22;46681;47.696;9.140;2023-05-15T05:00:46;13.80;75.80
60848;DHT22;46681;47.696;9.140;2023-05-15T05:03:16;13.80;75.50
60848;DHT22;46681;47.696;9.140;2023-05-15T05:06:00;13.80;75.20
60848;DHT22;46681;47.696;9.140;2023-05-15T05:11:58;13.80;75.20
60848;DHT22;46681;47.696;9.140;2023-05-15T05:14:52;13.90;75.80
60848;DHT22;46681;47.696;9.140;2023-05-15T05:17:26;13.90;75.70
60848;DHT22;46681;47.696;9.140;2023-05-15T05:20:03;14.00;75.60
60848;DHT22;46681;47.696;9.140;2023-05-15T05:22:31;14.00;75.20
60848;DHT22;46681;47.696;9.140;2023-05-15T05:25:14;14.00;75.10
60848;DHT22;46681;47.696;9.140;2023-05-15T05:27:43;14.00;75.00
60848;DHT22;46681;47.696;9.140;2023-05-15T05:33:01;14.00;75.20
60848;DHT22;46681;47.696;9.140;2023-05-15T05:35:32;14.00;74.90
60848;DHT22;46681;47.696;9.140;2023-05-15T05:41:19;14.10;75.70
60848;DHT22;46681;47.696;9.140;2023-05-15T05:44:22;14.10;75.10
60848;DHT22;46681;47.696;9.140;2023-05-15T05:47:19;14.10;75.00
60848;DHT22;46681;47.696;9.140;2023-05-15T05:50:39;14.10;74.90
60848;DHT22;46681;47.696;9.140;2023-05-15T05:59:25;14.10;74.80
60848;DHT22;46681;47.696;9.140;2023-05-15T06:01:52;14.10;74.90
60848;DHT22;46681;47.696;9.140;2023-05-15T06:07:08;14.10;74.80
60848;DHT22;46681;47.696;9.140;2023-05-15T06:09:39;14.10;74.80
60848;DHT22;46681;47.696;9.140;2023-05-15T06:12:13;14.10;74.70
60848;DHT22;46681;47.696;9.140;2023-05-15T06:14:55;14.10;74.60
60848;DHT22;46681;47.696;9.140;2023-05-15T06:17:33;14.10;74.70
60848;DHT22;46681;47.696;9.140;2023-05-15T06:20:09;14.10;74.60
60848;DHT22;46681;47.696;9.140;2023-05-15T06:22:52;14.20;74.70
60848;DHT22;46681;47.696;9.140;2023-05-15T06:25:30;14.20;74.60
60848;DHT22;46681;47.696;9.140;2023-05-15T06:28:12;14.20;74.50
60848;DHT22;46681;47.696;9.140;2023-05-15T06:33:43;14.20;74.30
60848;DHT22;46681;47.696;9.140;2023-05-15T06:36:28;14.30;74.50
60848;DHT22;46681;47.696;9.140;2023-05-15T06:38:57;14.30;74.30
60848;DHT22;46681;47.696;9.140;2023-05-15T06:41:40;14.40;74.30
60848;DHT22;46681;47.696;9.140;2023-05-15T06:44:11;14.40;74.20
60848;DHT22;46681;47.696;9.140;2023-05-15T06:47:29;14.40;74.10
60848;DHT22;46681;47.696;9.140;2023-05-15T06:50:05;14.40;74.00
60848;DHT22;46681;47.696;9.140;2023-05-15T06:52:55;14.50;74.20
60848;DHT22;46681;47.696;9.140;2023-05-15T06:55:46;14.50;74.10
60848;DHT22;46681;47.696;9.140;2023-05-15T06:58:25;14.50;74.20
60848;DHT22;46681;47.696;9.140;2023-05-15T07:01:03;14.50;74.20
60848;DHT22;46681;47.696;9.140;2023-05-15T07:03:41;14.50;74.30
60848;DHT22;46681;47.696;9.140;2023-05-15T07:09:06;14.50;74.40
60848;DHT22;46681;47.696;9.140;2023-05-15T07:12:19;14.60;74.20
60848;DHT22;46681;47.696;9.140;2023-05-15T07:14:50;14.60;74.20
60848;DHT22;46681;47.696;9.140;2023-05-15T07:17:23;14.60;74.10
60848;DHT22;46681;47.696;9.140;2023-05-15T07:20:29;14.60;74.00
60848;DHT22;46681;47.696;9.140;2023-05-15T07:23:19;14.70;74.00
60848;DHT22;46681;47.696;9.140;2023-05-15T07:26:15;14.70;73.80
60848;DHT22;46681;47.696;9.140;2023-05-15T07:28:55;14.70;73.80
60848;DHT22;46681;47.696;9.140;2023-05-15T07:31:39;14.70;73.60
60848;DHT22;46681;47.696;9.140;2023-05-15T07:34:07;14.80;73.80
60848;DHT22;46681;47.696;9.140;2023-05-15T07:36:42;14.80;73.60
60848;DHT22;46681;47.696;9.140;2023-05-15T07:42:05;14.80;73.40
60848;DHT22;46681;47.696;9.140;2023-05-15T07:44:42;14.80;73.50
60848;DHT22;46681;47.696;9.140;2023-05-15T07:47:10;14.90;73.40
60848;DHT22;46681;47.696;9.140;2023-05-15T07:49:57;14.90;73.30
60848;DHT22;46681;47.696;9.140;2023-05-15T07:52:44;14.90;73.30
60848;DHT22;46681;47.696;9.140;2023-05-15T07:58:09;15.00;73.30
60848;DHT22;46681;47.696;9.140;2023-05-15T08:00:59;15.00;73.10
60848;DHT22;46681;47.696;9.140;2023-05-15T08:03:36;15.10;73.10
60848;DHT22;46681;47.696;9.140;2023-05-15T08:06:26;15.10;72.80
60848;DHT22;46681;47.696;9.140;2023-05-15T08:09:04;15.10;72.80
60848;DHT22;46681;47.696;9.140;2023-05-15T08:14:38;15.10;72.80
60848;DHT22;46681;47.696;9.140;2023-05-15T08:17:34;15.10;72.80
60848;DHT22;46681;47.696;9.140;2023-05-15T08:20:22;15.10;72.60
60848;DHT22;46681;47.696;9.140;2023-05-15T08:23:23;15.20;72.80
60848;DHT22;46681;47.696;9.140;2023-05-15T08:26:26;15.20;72.70
60848;DHT22;46681;47.696;9.140;2023-05-15T08:28:54;15.20;72.70
60848;DHT22;46681;47.696;9.140;2023-05-15T08:31:24;15.20;72.70
60848;DHT22;46681;47.696;9.140;2023-05-15T08:33:51;15.10;72.70
60848;DHT22;46681;47.696;9.140;2023-05-15T08:36:26;15.10;72.70
60848;DHT22;46681;47.696;9.140;2023-05-15T08:39:18;15.10;72.60
60848;DHT22;46681;47.696;9.140;2023-05-15T08:44:42;15.20;72.50
60848;DHT22;46681;47.696;9.140;2023-05-15T08:47:37;15.20;72.40
60848;DHT22;46681;47.696;9.140;2023-05-15T08:50:23;15.30;72.30
60848;DHT22;46681;47.696;9.140;2023-05-15T08:53:46;15.30;72.10
60848;DHT22;46681;47.696;9.140;2023-05-15T08:59:43;15.30;72.00
60848;DHT22;46681;47.696;9.140;2023-05-15T09:02:47;15.30;71.80
60848;DHT22;46681;47.696;9.140;2023-05-15T09:12:42;15.40;71.60
60848;DHT22;46681;47.696;9.140;2023-05-15T09:28:30;15.80;70.20
60848;DHT22;46681;47.696;9.140;2023-05-15T09:37:59;16.10;69.70
60848;DHT22;46681;47.696;9.140;2023-05-15T09:47:08;16.20;68.90
60848;DHT22;46681;47.696;9.140;2023-05-15T09:56:17;16.40;68.30
60848;DHT22;46681;47.696;9.140;2023-05-15T09:59:18;16.50;67.70
60848;DHT22;46681;47.696;9.140;2023-05-15T10:21:20;17.80;65.20
60848;DHT22;46681;47.696;9.140;2023-05-15T10:26:54;18.30;64.20
60848;DHT22;46681;47.696;9.140;2023-05-15T10:39:53;19.10;62.00
60848;DHT22;46681;47.696;9.140;2023-05-15T10:42:54;19.30;61.60
60848;DHT22;46681;47.696;9.140;2023-05-15T10:49:16;19.70;60.40
60848;DHT22;46681;47.696;9.140;2023-05-15T10:52:01;19.90;60.10
60848;DHT22;46681;47.696;9.140;2023-05-15T11:23:56;21.60;56.20
60848;DHT22;46681;47.696;9.140;2023-05-15T11:26:48;21.40;56.40
60848;DHT22;46681;47.696;9.140;2023-05-15T11:36:15;21.10;57.50
60848;DHT22;46681;47.696;9.140;2023-05-15T11:38:49;21.10;57.70
60848;DHT22;46681;47.696;9.140;2023-05-15T11:41:44;21.10;57.30
60848;DHT22;46681;47.696;9.140;2023-05-15T11:48:06;21.10;57.60
60848;DHT22;46681;47.696;9.140;2023-05-15T11:51:22;21.20;57.40
60848;DHT22;46681;47.696;9.140;2023-05-15T12:13:40;22.80;53.70
60848;DHT22;46681;47.696;9.140;2023-05-15T12:23:34;23.20;52.90
60848;DHT22;46681;47.696;9.140;2023-05-15T12:35:52;23.30;52.40
60848;DHT22;46681;47.696;9.140;2023-05-15T12:41:42;23.60;51.90
60848;DHT22;46681;47.696;9.140;2023-05-15T13:25:46;21.80;51.10
60848;DHT22;46681;47.696;9.140;2023-05-15T13:28:51;21.70;51.30
60848;DHT22;46681;47.696;9.140;2023-05-15T13:34:42;21.60;51.40
60848;DHT22;46681;47.696;9.140;2023-05-15T13:37:26;21.60;51.90
60848;DHT22;46681;47.696;9.140;2023-05-15T13:43:34;21.50;52.00
60848;DHT22;46681;47.696;9.140;2023-05-15T13:46:06;21.50;52.10
60848;DHT22;46681;47.696;9.140;2023-05-15T14:10:35;21.20;52.90
60848;DHT22;46681;47.696;9.140;2023-05-15T14:13:36;21.10;53.40
60848;DHT22;46681;47.696;9.140;2023-05-15T14:20:01;21.00;53.90
60848;DHT22;46681;47.696;9.140;2023-05-15T14:35:54;20.90;51.90
60848;DHT22;46681;47.696;9.140;2023-05-15T14:38:41;21.00;50.70
60848;DHT22;46681;47.696;9.140;2023-05-15T14:57:10;21.20;51.20
60848;DHT22;46681;47.696;9.140;2023-05-15T14:59:49;21.30;51.50
60848;DHT22;46681;47.696;9.140;2023-05-15T15:02:59;21.40;50.70
60848;DHT22;46681;47.696;9.140;2023-05-15T15:05:45;21.40;52.10
60848;DHT22;46681;47.696;9.140;2023-05-15T15:09:03;21.50;51.80
60848;DHT22;46681;47.696;9.140;2023-05-15T15:12:16;21.50;50.80
60848;DHT22;46681;47.696;9.140;2023-05-15T15:15:25;21.50;50.80
60848;DHT22;46681;47.696;9.140;2023-05-15T15:18:25;21.50;49.70
60848;DHT22;46681;47.696;9.140;2023-05-15T15:30:44;21.50;50.80
60848;DHT22;46681;47.696;9.140;2023-05-15T15:34:02;21.50;50.50
60848;DHT22;46681;47.696;9.140;2023-05-15T15:36:50;21.50;51.00
60848;DHT22;46681;47.696;9.140;2023-05-15T15:39:25;21.50;51.10
60848;DHT22;46681;47.696;9.140;2023-05-15T15:42:00;21.40;50.90
60848;DHT22;46681;47.696;9.140;2023-05-15T15:45:00;21.40;50.90
60848;DHT22;46681;47.696;9.140;2023-05-15T15:48:04;21.40;50.30
60848;DHT22;46681;47.696;9.140;2023-05-15T15:53:59;21.30;50.50
60848;DHT22;46681;47.696;9.140;2023-05-15T15:57:01;21.30;50.60
60848;DHT22;46681;47.696;9.140;2023-05-15T15:59:52;21.30;51.10
60848;DHT22;46681;47.696;9.140;2023-05-15T16:02:28;21.20;50.30
60848;DHT22;46681;47.696;9.140;2023-05-15T16:05:18;21.20;50.00
60848;DHT22;46681;47.696;9.140;2023-05-15T16:07:59;21.20;50.60
60848;DHT22;46681;47.696;9.140;2023-05-15T16:16:48;21.00;51.30
60848;DHT22;46681;47.696;9.140;2023-05-15T16:25:55;20.90;52.40
60848;DHT22;46681;47.696;9.140;2023-05-15T16:29:08;20.80;53.50
60848;DHT22;46681;47.696;9.140;2023-05-15T16:35:19;20.80;54.10
60848;DHT22;46681;47.696;9.140;2023-05-15T16:38:18;20.70;54.10
60848;DHT22;46681;47.696;9.140;2023-05-15T16:41:35;20.70;54.70
60848;DHT22;46681;47.696;9.140;2023-05-15T16:47:44;20.60;54.90
60848;DHT22;46681;47.696;9.140;2023-05-15T16:54:11;20.50;55.20
60848;DHT22;46681;47.696;9.140;2023-05-15T16:57:31;20.40;55.30
60848;DHT22;46681;47.696;9.140;2023-05-15T17:03:35;20.40;55.70
60848;DHT22;46681;47.696;9.140;2023-05-15T17:06:29;20.30;55.80
60848;DHT22;46681;47.696;9.140;2023-05-15T17:22:21;20.00;57.20
60848;DHT22;46681;47.696;9.140;2023-05-15T17:24:59;19.90;57.40
60848;DHT22;46681;47.696;9.140;2023-05-15T17:27:57;19.90;57.60
60848;DHT22;46681;47.696;9.140;2023-05-15T17:30:42;19.80;57.70
60848;DHT22;46681;47.696;9.140;2023-05-15T17:33:20;19.80;57.90
60848;DHT22;46681;47.696;9.140;2023-05-15T17:36:03;19.60;57.90
60848;DHT22;46681;47.696;9.140;2023-05-15T17:38:31;19.60;58.10
60848;DHT22;46681;47.696;9.140;2023-05-15T17:41:08;19.50;58.30
60848;DHT22;46681;47.696;9.140;2023-05-15T17:47:22;19.50;58.50
60848;DHT22;46681;47.696;9.140;2023-05-15T17:53:18;19.40;58.90
60848;DHT22;46681;47.696;9.140;2023-05-15T17:56:26;19.40;59.10
60848;DHT22;46681;47.696;9.140;2023-05-15T17:58:57;19.30;59.20
60848;DHT22;46681;47.696;9.140;2023-05-15T18:01:49;19.30;59.40
60848;DHT22;46681;47.696;9.140;2023-05-15T18:04:50;19.20;59.60
60848;DHT22;46681;47.696;9.140;2023-05-15T18:07:22;19.20;59.60
60848;DHT22;46681;47.696;9.140;2023-05-15T18:09:56;19.10;59.30
60848;DHT22;46681;47.696;9.140;2023-05-15T18:12:33;19.00;59.60
60848;DHT22;46681;47.696;9.140;2023-05-15T18:15:06;19.00;59.60
60848;DHT22;46681;47.696;9.140;2023-05-15T18:21:09;18.90;59.50
60848;DHT22;46681;47.696;9.140;2023-05-15T18:26:41;18.80;59.40
60848;DHT22;46681;47.696;9.140;2023-05-15T18:29:10;18.80;59.50
60848;DHT22;46681;47.696;9.140;2023-05-15T18:31:52;18.80;59.50
60848;DHT22;46681;47.696;9.140;2023-05-15T18:34:36;18.70;59.50
60848;DHT22;46681;47.696;9.140;2023-05-15T18:40:11;18.60;59.60
60848;DHT22;46681;47.696;9.140;2023-05-15T18:42:41;18.60;59.70
60848;DHT22;46681;47.696;9.140;2023-05-15T18:45:13;18.50;59.80
60848;DHT22;46681;47.696;9.140;2023-05-15T18:50:55;18.40;60.00
60848;DHT22;46681;47.696;9.140;2023-05-15T18:53:43;18.40;60.10
60848;DHT22;46681;47.696;9.140;2023-05-15T18:56:16;18.30;60.20
60848;DHT22;46681;47.696;9.140;2023-05-15T18:58:47;18.30;60.10
60848;DHT22;46681;47.696;9.140;2023-05-15T19:01:40;18.20;60.10
60848;DHT22;46681;47.696;9.140;2023-05-15T19:04:12;18.20;60.40
60848;DHT22;46681;47.696;9.140;2023-05-15T19:07:01;18.10;60.40
60848;DHT22;46681;47.696;9.140;2023-05-15T19:09:35;18.10;61.10
60848;DHT22;46681;47.696;9.140;2023-05-15T19:12:26;18.00;60.80
60848;DHT22;46681;47.696;9.140;2023-05-15T19:15:21;18.00;61.00
60848;DHT22;46681;47.696;9.140;2023-05-15T19:18:01;17.90;61.30
60848;DHT22;46681;47.696;9.140;2023-05-15T19:20:36;17.90;61.20
60848;DHT22;46681;47.696;9.140;2023-05-15T19:23:09;17.80;61.40
60848;DHT22;46681;47.696;9.140;2023-05-15T19:25:52;17.80;61.60
60848;DHT22;46681;47.696;9.140;2023-05-15T19:31:12;17.70;61.70
60848;DHT22;46681;47.696;9.140;2023-05-15T19:33:58;17.60;61.80
60848;DHT22;46681;47.696;9.140;2023-05-15T19:36:31;17.50;61.90
60848;DHT22;46681;47.696;9.140;2023-05-15T19:39:12;17.50;62.00
60848;DHT22;46681;47.696;9.140;2023-05-15T19:41:54;17.50;62.20
60848;DHT22;46681;47.696;9.140;2023-05-15T19:44:28;17.40;62.20
60848;DHT22;46681;47.696;9.140;2023-05-15T19:47:02;17.40;62.30
60848;DHT22;46681;47.696;9.140;2023-05-15T19:49:31;17.30;62.40
60848;DHT22;46681;47.696;9.140;2023-05-15T19:51:58;17.30;62.30
60848;DHT22;46681;47.696;9.140;2023-05-15T19:54:29;17.20;62.50
60848;DHT22;46681;47.696;9.140;2023-05-15T19:57:02;17.20;62.90
60848;DHT22;46681;47.696;9.140;2023-05-15T19:59:32;17.20;62.90
60848;DHT22;46681;47.696;9.140;2023-05-15T20:02:21;17.10;63.00
60848;DHT22;46681;47.696;9.140;2023-05-15T20:04:58;17.10;63.00
60848;DHT22;46681;47.696;9.140;2023-05-15T20:07:30;17.10;63.20
60848;DHT22;46681;47.696;9.140;2023-05-15T20:10:00;17.00;63.40
60848;DHT22;46681;47.696;9.140;2023-05-15T20:12:27;17.00;63.30
60848;DHT22;46681;47.696;9.140;2023-05-15T20:14:55;17.00;63.20
60848;DHT22;46681;47.696;9.140;2023-05-15T20:17:26;17.00;63.60
60848;DHT22;46681;47.696;9.140;2023-05-15T20:22:40;16.90;63.60
60848;DHT22;46681;47.696;9.140;2023-05-15T20:25:15;16.80;63.70
60848;DHT22;46681;47.696;9.140;2023-05-15T20:27:58;16.80;63.80
60848;DHT22;46681;47.696;9.140;2023-05-15T20:33:24;16.70;64.00
60848;DHT22;46681;47.696;9.140;2023-05-15T20:36:03;16.70;64.00
60848;DHT22;46681;47.696;9.140;2023-05-15T20:38:43;16.70;64.20
60848;DHT22;46681;47.696;9.140;2023-05-15T20:41:27;16.60;64.20
60848;DHT22;46681;47.696;9.140;2023-05-15T20:43:57;16.60;64.20
60848;DHT22;46681;47.696;9.140;2023-05-15T20:46:37;16.60;64.20
60848;DHT22;46681;47.696;9.140;2023-05-15T20:49:28;16.60;64.30
60848;DHT22;46681;47.696;9.140;2023-05-15T20:52:00;16.50;64.10
60848;DHT22;46681;47.696;9.140;2023-05-15T20:54:35;16.50;64.40
60848;DHT22;46681;47.696;9.140;2023-05-15T20:57:00;16.50;64.40
60848;DHT22;46681;47.696;9.140;2023-05-15T20:59:30;16.40;64.60
60848;DHT22;46681;47.696;9.140;2023-05-15T21:02:01;16.40;64.40
60848;DHT22;46681;47.696;9.140;2023-05-15T21:04:32;16.40;64.70
60848;DHT22;46681;47.696;9.140;2023-05-15T21:07:04;16.30;64.60
60848;DHT22;46681;47.696;9.140;2023-05-15T21:09:58;16.30;64.90
60848;DHT22;46681;47.696;9.140;2023-05-15T21:12:41;16.30;64.70
60848;DHT22;46681;47.696;9.140;2023-05-15T21:15:14;16.30;64.90
60848;DHT22;46681;47.696;9.140;2023-05-15T21:21:00;16.20;65.00
60848;DHT22;46681;47.696;9.140;2023-05-15T21:23:30;16.10;65.00
60848;DHT22;46681;47.696;9.140;2023-05-15T21:25:56;16.10;65.10
60848;DHT22;46681;47.696;9.140;2023-05-15T21:28:22;16.10;65.20
60848;DHT22;46681;47.696;9.140;2023-05-15T21:30:53;16.10;65.20
60848;DHT22;46681;47.696;9.140;2023-05-15T21:33:25;16.10;65.30
60848;DHT22;46681;47.696;9.140;2023-05-15T21:35:57;16.00;65.40
60848;DHT22;46681;47.696;9.140;2023-05-15T21:38:34;16.00;65.40
60848;DHT22;46681;47.696;9.140;2023-05-15T21:41:01;16.00;65.30
60848;DHT22;46681;47.696;9.140;2023-05-15T21:43:43;16.00;65.50
60848;DHT22;46681;47.696;9.140;2023-05-15T21:46:11;15.90;65.50
60848;DHT22;46681;47.696;9.140;2023-05-15T21:48:44;16.00;65.70
60848;DHT22;46681;47.696;9.140;2023-05-15T21:51:13;15.90;65.70
60848;DHT22;46681;47.696;9.140;2023-05-15T21:53:40;15.90;65.60
60848;DHT22;46681;47.696;9.140;2023-05-15T21:56:29;15.90;65.80
60848;DHT22;46681;47.696;9.140;2023-05-15T21:58:56;15.90;65.80
60848;DHT22;46681;47.696;9.140;2023-05-15T22:01:28;15.90;66.00
60848;DHT22;46681;47.696;9.140;2023-05-15T22:03:55;15.90;65.80
60848;DHT22;46681;47.696;9.140;2023-05-15T22:06:30;15.80;65.80
60848;DHT22;46681;47.696;9.140;2023-05-15T22:08:59;15.80;65.90
60848;DHT22;46681;47.696;9.140;2023-05-15T22:11:37;15.80;66.00
60848;DHT22;46681;47.696;9.140;2023-05-15T22:14:05;15.80;66.00
60848;DHT22;46681;47.696;9.140;2023-05-15T22:16:35;15.80;66.20
60848;DHT22;46681;47.696;9.140;2023-05-15T22:19:03;15.70;66.10
60848;DHT22;46681;47.696;9.140;2023-05-15T22:21:33;15.70;66.10
60848;DHT22;46681;47.696;9.140;2023-05-15T22:24:01;15.70;66.10
60848;DHT22;46681;47.696;9.140;2023-05-15T22:26:31;15.70;66.10
60848;DHT22;46681;47.696;9.140;2023-05-15T22:29:09;15.70;66.20
60848;DHT22;46681;47.696;9.140;2023-05-15T22:31:39;15.70;66.60
60848;DHT22;46681;47.696;9.140;2023-05-15T22:34:06;15.70;66.20
60848;DHT22;46681;47.696;9.140;2023-05-15T22:36:40;15.70;66.30
60848;DHT22;46681;47.696;9.140;2023-05-15T22:39:10;15.70;66.40
60848;DHT22;46681;47.696;9.140;2023-05-15T22:41:38;15.60;66.20
60848;DHT22;46681;47.696;9.140;2023-05-15T22:44:11;15.60;66.30
60848;DHT22;46681;47.696;9.140;2023-05-15T22:46:36;15.60;66.30
60848;DHT22;46681;47.696;9.140;2023-05-15T22:49:07;15.60;66.50
60848;DHT22;46681;47.696;9.140;2023-05-15T22:51:34;15.60;66.40
60848;DHT22;46681;47.696;9.140;2023-05-15T22:54:01;15.60;66.50
60848;DHT22;46681;47.696;9.140;2023-05-15T22:56:30;15.60;66.50
60848;DHT22;46681;47.696;9.140;2023-05-15T22:58:56;15.60;66.50
60848;DHT22;46681;47.696;9.140;2023-05-15T23:01:26;15.60;66.50
60848;DHT22;46681;47.696;9.140;2023-05-15T23:03:55;15.60;66.60
60848;DHT22;46681;47.696;9.140;2023-05-15T23:06:22;15.60;66.60